LPE2211 SPJC-SPJL
Flight info
| Callsign | LPE2211 |
|---|---|
| Flight time | 1h 9m |
| Altitude | 37000 |
| Route | KULIS UM415 OPKUL |
| Aircraft | A319/M-SDE3FGHIRWY/LB1 |
Departure
| Time | 2026-04-28 17:56 |
|---|---|
| Airport | Jorge Chávez International Airport (SPJC) |
Arrival
| Time | 2026-04-28 19:06 |
|---|---|
| Airport | Inca Manco Capac International Airport (SPJL) |
| Time | Latitude | Longitude | Altitude | Speed | Heading |
|---|---|---|---|---|---|
| 2026-04-28 17:28 | -12.02356 | -77.10937 | 73 ft | 0 kts | 64° |
| 2026-04-28 17:47 | -12.02362 | -77.10947 | 67 ft | 3 kts | 64° |
| 2026-04-28 17:47 | -12.02370 | -77.10964 | 62 ft | 3 kts | 64° |
| 2026-04-28 17:47 | -12.02375 | -77.10976 | 64 ft | 3 kts | 64° |
| 2026-04-28 17:48 | -12.02374 | -77.10998 | 65 ft | 2 kts | 165° |
| 2026-04-28 17:48 | -12.02373 | -77.10998 | 65 ft | 0 kts | 169° |
| 2026-04-28 17:50 | -12.02377 | -77.10998 | 65 ft | 2 kts | 170° |
| 2026-04-28 17:51 | -12.02402 | -77.10998 | 69 ft | 5 kts | 187° |
| 2026-04-28 17:51 | -12.02443 | -77.11000 | 71 ft | 6 kts | 172° |
| 2026-04-28 17:51 | -12.02488 | -77.10983 | 68 ft | 7 kts | 154° |
| 2026-04-28 17:51 | -12.02534 | -77.10957 | 73 ft | 8 kts | 152° |
| 2026-04-28 17:52 | -12.02586 | -77.10931 | 77 ft | 9 kts | 155° |
| 2026-04-28 17:52 | -12.02650 | -77.10900 | 78 ft | 12 kts | 155° |
| 2026-04-28 17:52 | -12.02809 | -77.10822 | 84 ft | 13 kts | 154° |
| 2026-04-28 17:53 | -12.02900 | -77.10808 | 84 ft | 14 kts | 188° |
| 2026-04-28 17:53 | -12.02998 | -77.10818 | 86 ft | 14 kts | 172° |
| 2026-04-28 17:53 | -12.03091 | -77.10775 | 88 ft | 15 kts | 154° |
| 2026-04-28 17:53 | -12.03185 | -77.10728 | 90 ft | 15 kts | 154° |
| 2026-04-28 17:54 | -12.03280 | -77.10681 | 93 ft | 15 kts | 154° |
| 2026-04-28 17:54 | -12.03375 | -77.10633 | 95 ft | 15 kts | 153° |
| 2026-04-28 17:54 | -12.03472 | -77.10585 | 97 ft | 15 kts | 155° |
| 2026-04-28 17:54 | -12.03552 | -77.10582 | 100 ft | 9 kts | 204° |
| 2026-04-28 17:55 | -12.03592 | -77.10632 | 101 ft | 9 kts | 245° |
| 2026-04-28 17:55 | -12.03595 | -77.10703 | 101 ft | 11 kts | 275° |
| 2026-04-28 17:55 | -12.03532 | -77.10767 | 99 ft | 18 kts | 334° |
| 2026-04-28 17:55 | -12.03250 | -77.10907 | 94 ft | 74 kts | 334° |
| 2026-04-28 17:56 | -12.02612 | -77.11221 | 71 ft | 129 kts | 334° |
| 2026-04-28 17:56 | -12.01667 | -77.11687 | 229 ft | 160 kts | 332° |
| 2026-04-28 17:56 | -12.00685 | -77.12207 | 771 ft | 159 kts | 322° |
| 2026-04-28 17:56 | -11.99853 | -77.12934 | 1437 ft | 160 kts | 311° |
| 2026-04-28 17:57 | -11.99158 | -77.13917 | 1797 ft | 182 kts | 296° |
| 2026-04-28 17:57 | -11.98693 | -77.15201 | 2164 ft | 204 kts | 282° |
| 2026-04-28 17:57 | -11.98617 | -77.16710 | 2608 ft | 222 kts | 264° |
| 2026-04-28 17:57 | -11.99065 | -77.18291 | 3091 ft | 240 kts | 243° |
| 2026-04-28 17:58 | -12.00098 | -77.19709 | 3651 ft | 261 kts | 221° |
| 2026-04-28 17:58 | -12.01680 | -77.20667 | 4437 ft | 270 kts | 198° |
| 2026-04-28 17:58 | -12.03546 | -77.20936 | 5288 ft | 276 kts | 175° |
| 2026-04-28 17:58 | -12.05400 | -77.20417 | 6142 ft | 280 kts | 152° |
| 2026-04-28 17:59 | -12.06898 | -77.19142 | 6941 ft | 284 kts | 127° |
| 2026-04-28 17:59 | -12.07558 | -77.17986 | 7476 ft | 286 kts | 114° |
| 2026-04-28 17:59 | -12.08655 | -77.15497 | 8583 ft | 289 kts | 114° |
| 2026-04-28 17:59 | -12.09485 | -77.13618 | 9388 ft | 292 kts | 114° |
| 2026-04-28 18:00 | -12.10043 | -77.12362 | 9906 ft | 294 kts | 115° |
| 2026-04-28 18:00 | -12.10946 | -77.10446 | 10339 ft | 309 kts | 117° |
| 2026-04-28 18:00 | -12.11992 | -77.08443 | 10624 ft | 327 kts | 118° |
| 2026-04-28 18:00 | -12.13029 | -77.06347 | 11179 ft | 333 kts | 115° |
| 2026-04-28 18:01 | -12.13981 | -77.04183 | 11826 ft | 336 kts | 113° |
| 2026-04-28 18:01 | -12.14854 | -77.01953 | 12469 ft | 340 kts | 111° |
| 2026-04-28 18:01 | -12.15783 | -76.99718 | 13072 ft | 343 kts | 117° |
| 2026-04-28 18:01 | -12.16899 | -76.97552 | 13722 ft | 346 kts | 119° |
| 2026-04-28 18:02 | -12.18090 | -76.95407 | 14300 ft | 348 kts | 120° |
| 2026-04-28 18:02 | -12.19331 | -76.93264 | 14847 ft | 352 kts | 121° |
| 2026-04-28 18:02 | -12.20598 | -76.91108 | 15387 ft | 355 kts | 121° |
| 2026-04-28 18:02 | -12.21873 | -76.88929 | 15929 ft | 358 kts | 121° |
| 2026-04-28 18:03 | -12.23153 | -76.86727 | 16489 ft | 362 kts | 120° |
| 2026-04-28 18:03 | -12.24433 | -76.84504 | 17018 ft | 365 kts | 120° |
| 2026-04-28 18:03 | -12.25719 | -76.82251 | 17537 ft | 368 kts | 120° |
| 2026-04-28 18:03 | -12.27014 | -76.79975 | 18046 ft | 372 kts | 120° |
| 2026-04-28 18:04 | -12.28320 | -76.77676 | 18591 ft | 375 kts | 120° |
| 2026-04-28 18:04 | -12.29635 | -76.75365 | 19040 ft | 378 kts | 120° |
| 2026-04-28 18:04 | -12.30966 | -76.73032 | 19471 ft | 381 kts | 120° |
| 2026-04-28 18:04 | -12.32308 | -76.70684 | 19920 ft | 384 kts | 120° |
| 2026-04-28 18:05 | -12.33662 | -76.68314 | 20365 ft | 388 kts | 120° |
| 2026-04-28 18:05 | -12.34567 | -76.66729 | 20671 ft | 390 kts | 120° |
| 2026-04-28 18:05 | -12.36402 | -76.63512 | 21307 ft | 394 kts | 120° |
| 2026-04-28 18:05 | -12.37786 | -76.61080 | 21748 ft | 397 kts | 120° |
| 2026-04-28 18:06 | -12.39181 | -76.58629 | 22172 ft | 400 kts | 120° |
| 2026-04-28 18:06 | -12.40588 | -76.56159 | 22599 ft | 403 kts | 120° |
| 2026-04-28 18:06 | -12.42001 | -76.53674 | 23028 ft | 406 kts | 120° |
| 2026-04-28 18:06 | -12.43424 | -76.51165 | 23432 ft | 409 kts | 120° |
| 2026-04-28 18:07 | -12.44859 | -76.48637 | 23853 ft | 413 kts | 120° |
| 2026-04-28 18:07 | -12.46308 | -76.46086 | 24160 ft | 417 kts | 120° |
| 2026-04-28 18:07 | -12.47771 | -76.43512 | 24482 ft | 420 kts | 120° |
| 2026-04-28 18:07 | -12.49248 | -76.40919 | 24812 ft | 423 kts | 120° |
| 2026-04-28 18:08 | -12.50735 | -76.38310 | 25153 ft | 426 kts | 120° |
| 2026-04-28 18:08 | -12.52227 | -76.35689 | 25566 ft | 428 kts | 120° |
| 2026-04-28 18:08 | -12.53728 | -76.33047 | 25901 ft | 430 kts | 120° |
| 2026-04-28 18:08 | -12.55215 | -76.30427 | 26227 ft | 433 kts | 120° |
| 2026-04-28 18:09 | -12.56730 | -76.27752 | 26537 ft | 435 kts | 120° |
| 2026-04-28 18:09 | -12.58252 | -76.25065 | 26884 ft | 437 kts | 120° |
| 2026-04-28 18:09 | -12.59785 | -76.22365 | 27218 ft | 440 kts | 120° |
| 2026-04-28 18:09 | -12.61327 | -76.19647 | 27608 ft | 443 kts | 120° |
| 2026-04-28 18:10 | -12.62873 | -76.16915 | 27944 ft | 445 kts | 120° |
| 2026-04-28 18:10 | -12.64428 | -76.14168 | 28274 ft | 447 kts | 120° |
| 2026-04-28 18:10 | -12.65996 | -76.11401 | 28602 ft | 450 kts | 120° |
| 2026-04-28 18:10 | -12.67592 | -76.08588 | 28929 ft | 453 kts | 120° |
| 2026-04-28 18:11 | -12.69157 | -76.05830 | 29272 ft | 455 kts | 120° |
| 2026-04-28 18:11 | -12.70754 | -76.03017 | 29582 ft | 458 kts | 120° |
| 2026-04-28 18:11 | -12.72356 | -76.00191 | 29906 ft | 461 kts | 120° |
| 2026-04-28 18:11 | -12.73967 | -75.97348 | 30231 ft | 463 kts | 121° |
| 2026-04-28 18:12 | -12.75777 | -75.94614 | 30507 ft | 465 kts | 127° |
| 2026-04-28 18:12 | -12.77711 | -75.91941 | 30803 ft | 468 kts | 127° |
| 2026-04-28 18:12 | -12.79659 | -75.89257 | 31041 ft | 471 kts | 127° |
| 2026-04-28 18:12 | -12.81624 | -75.86559 | 31283 ft | 474 kts | 127° |
| 2026-04-28 18:13 | -12.83600 | -75.83849 | 31508 ft | 476 kts | 126° |
| 2026-04-28 18:13 | -12.85588 | -75.81118 | 31764 ft | 479 kts | 126° |
| 2026-04-28 18:13 | -12.87581 | -75.78377 | 32110 ft | 480 kts | 126° |
| 2026-04-28 18:13 | -12.89572 | -75.75635 | 32486 ft | 479 kts | 126° |
| 2026-04-28 18:14 | -12.91563 | -75.72890 | 32839 ft | 479 kts | 126° |
| 2026-04-28 18:14 | -12.93550 | -75.70150 | 33188 ft | 480 kts | 126° |
| 2026-04-28 18:14 | -12.95540 | -75.67403 | 33501 ft | 480 kts | 126° |
| 2026-04-28 18:14 | -12.97528 | -75.64657 | 33877 ft | 480 kts | 125° |
| 2026-04-28 18:15 | -12.99514 | -75.61912 | 34284 ft | 480 kts | 125° |
| 2026-04-28 18:15 | -13.01505 | -75.59163 | 34595 ft | 480 kts | 126° |
| 2026-04-28 18:15 | -13.03495 | -75.56418 | 34991 ft | 479 kts | 125° |
| 2026-04-28 18:15 | -13.05486 | -75.53672 | 35319 ft | 479 kts | 125° |
| 2026-04-28 18:16 | -13.07473 | -75.50928 | 35625 ft | 479 kts | 125° |
| 2026-04-28 18:16 | -13.09461 | -75.48182 | 35908 ft | 480 kts | 125° |
| 2026-04-28 18:16 | -13.11451 | -75.45430 | 36178 ft | 481 kts | 125° |
| 2026-04-28 18:16 | -13.13447 | -75.42670 | 36469 ft | 481 kts | 125° |
| 2026-04-28 18:17 | -13.15435 | -75.39919 | 36793 ft | 480 kts | 125° |
| 2026-04-28 18:17 | -13.17425 | -75.37165 | 37113 ft | 479 kts | 125° |
| 2026-04-28 18:17 | -13.19410 | -75.34416 | 37316 ft | 480 kts | 125° |
| 2026-04-28 18:17 | -13.21394 | -75.31667 | 37305 ft | 479 kts | 125° |
| 2026-04-28 18:18 | -13.25358 | -75.26176 | 37306 ft | 479 kts | 125° |
| 2026-04-28 18:18 | -13.28657 | -75.21613 | 37306 ft | 479 kts | 125° |
| 2026-04-28 18:19 | -13.33288 | -75.15182 | 37347 ft | 479 kts | 124° |
| 2026-04-28 18:19 | -13.37246 | -75.09686 | 37322 ft | 478 kts | 125° |
| 2026-04-28 18:20 | -13.41202 | -75.04197 | 37369 ft | 478 kts | 125° |
| 2026-04-28 18:20 | -13.45154 | -74.98701 | 37361 ft | 478 kts | 125° |
| 2026-04-28 18:21 | -13.48674 | -74.92938 | 37346 ft | 475 kts | 111° |
| 2026-04-28 18:21 | -13.51319 | -74.86725 | 37347 ft | 475 kts | 111° |
| 2026-04-28 18:22 | -13.53955 | -74.80551 | 37346 ft | 475 kts | 111° |
| 2026-04-28 18:22 | -13.56632 | -74.74296 | 37383 ft | 475 kts | 111° |
| 2026-04-28 18:23 | -13.59295 | -74.68069 | 37370 ft | 475 kts | 111° |
| 2026-04-28 18:23 | -13.61930 | -74.61895 | 37384 ft | 475 kts | 111° |
| 2026-04-28 18:24 | -13.64150 | -74.56684 | 37385 ft | 475 kts | 111° |
| 2026-04-28 18:24 | -13.67236 | -74.49455 | 37399 ft | 475 kts | 111° |
| 2026-04-28 18:25 | -13.69887 | -74.43236 | 37403 ft | 475 kts | 111° |
| 2026-04-28 18:26 | -13.73856 | -74.33899 | 37399 ft | 474 kts | 111° |
| 2026-04-28 18:26 | -13.77565 | -74.25166 | 37403 ft | 475 kts | 111° |
| 2026-04-28 18:27 | -13.82845 | -74.12697 | 37396 ft | 475 kts | 111° |
| 2026-04-28 18:27 | -13.88125 | -74.00233 | 37369 ft | 475 kts | 111° |
| 2026-04-28 18:28 | -13.91160 | -73.93059 | 37369 ft | 476 kts | 112° |
| 2026-04-28 18:28 | -13.93795 | -73.86822 | 37368 ft | 475 kts | 111° |
| 2026-04-28 18:29 | -13.96430 | -73.80592 | 37369 ft | 475 kts | 111° |
| 2026-04-28 18:29 | -13.99060 | -73.74359 | 37358 ft | 475 kts | 111° |
| 2026-04-28 18:30 | -14.01686 | -73.68121 | 37367 ft | 474 kts | 111° |
| 2026-04-28 18:30 | -14.04312 | -73.61887 | 37344 ft | 475 kts | 111° |
| 2026-04-28 18:31 | -14.06939 | -73.55645 | 37339 ft | 475 kts | 111° |
| 2026-04-28 18:31 | -14.09567 | -73.49396 | 37325 ft | 475 kts | 111° |
| 2026-04-28 18:32 | -14.12190 | -73.43142 | 37323 ft | 475 kts | 111° |
| 2026-04-28 18:32 | -14.14810 | -73.36891 | 37315 ft | 475 kts | 111° |
| 2026-04-28 18:33 | -14.17434 | -73.30647 | 37315 ft | 475 kts | 111° |
| 2026-04-28 18:33 | -14.20053 | -73.24393 | 37322 ft | 476 kts | 111° |
| 2026-04-28 18:34 | -14.22669 | -73.18144 | 37308 ft | 474 kts | 111° |
| 2026-04-28 18:34 | -14.25280 | -73.11907 | 37306 ft | 474 kts | 111° |
| 2026-04-28 18:35 | -14.27890 | -73.05662 | 37298 ft | 474 kts | 111° |
| 2026-04-28 18:35 | -14.30499 | -72.99420 | 37297 ft | 474 kts | 111° |
| 2026-04-28 18:36 | -14.33111 | -72.93168 | 37292 ft | 475 kts | 111° |
| 2026-04-28 18:36 | -14.35716 | -72.86900 | 37287 ft | 476 kts | 111° |
| 2026-04-28 18:37 | -14.38304 | -72.80668 | 37280 ft | 476 kts | 111° |
| 2026-04-28 18:37 | -14.40924 | -72.74384 | 37280 ft | 477 kts | 111° |
| 2026-04-28 18:38 | -14.43544 | -72.68097 | 37279 ft | 477 kts | 111° |
| 2026-04-28 18:38 | -14.46162 | -72.61802 | 37275 ft | 477 kts | 111° |
| 2026-04-28 18:39 | -14.48769 | -72.55510 | 37287 ft | 477 kts | 111° |
| 2026-04-28 18:39 | -14.51381 | -72.49217 | 37280 ft | 476 kts | 111° |
| 2026-04-28 18:40 | -14.56339 | -72.37243 | 37311 ft | 476 kts | 111° |
| 2026-04-28 18:40 | -14.61535 | -72.24678 | 37307 ft | 476 kts | 111° |
| 2026-04-28 18:41 | -14.66720 | -72.12144 | 37339 ft | 474 kts | 111° |
| 2026-04-28 18:41 | -14.71871 | -71.99618 | 37333 ft | 473 kts | 111° |
| 2026-04-28 18:42 | -14.77017 | -71.87106 | 37360 ft | 473 kts | 111° |
| 2026-04-28 18:42 | -14.79541 | -71.80754 | 37351 ft | 471 kts | 106° |
| 2026-04-28 18:43 | -14.81489 | -71.74289 | 37354 ft | 471 kts | 105° |
| 2026-04-28 18:43 | -14.83427 | -71.67824 | 37344 ft | 471 kts | 105° |
| 2026-04-28 18:44 | -14.85365 | -71.61361 | 37347 ft | 471 kts | 105° |
| 2026-04-28 18:44 | -14.87949 | -71.52707 | 37375 ft | 471 kts | 105° |
| 2026-04-28 18:45 | -14.89883 | -71.46235 | 37366 ft | 472 kts | 105° |
| 2026-04-28 18:45 | -14.91812 | -71.39803 | 37363 ft | 472 kts | 105° |
| 2026-04-28 18:46 | -14.93748 | -71.33323 | 37357 ft | 472 kts | 105° |
| 2026-04-28 18:46 | -14.95683 | -71.26830 | 37312 ft | 473 kts | 105° |
| 2026-04-28 18:47 | -14.96650 | -71.23579 | 37058 ft | 473 kts | 105° |
| 2026-04-28 18:47 | -14.97612 | -71.20329 | 36809 ft | 473 kts | 105° |
| 2026-04-28 18:47 | -14.98574 | -71.17081 | 36546 ft | 470 kts | 105° |
| 2026-04-28 18:47 | -14.99532 | -71.13846 | 36047 ft | 470 kts | 105° |
| 2026-04-28 18:48 | -15.00488 | -71.10620 | 35569 ft | 469 kts | 106° |
| 2026-04-28 18:48 | -15.01442 | -71.07401 | 35076 ft | 468 kts | 106° |
| 2026-04-28 18:48 | -15.02398 | -71.04182 | 34580 ft | 468 kts | 107° |
| 2026-04-28 18:48 | -15.03352 | -71.00973 | 34029 ft | 467 kts | 107° |
| 2026-04-28 18:49 | -15.04305 | -70.97769 | 33520 ft | 465 kts | 107° |
| 2026-04-28 18:49 | -15.04932 | -70.95654 | 33198 ft | 463 kts | 107° |
| 2026-04-28 18:49 | -15.06221 | -70.91430 | 32581 ft | 458 kts | 111° |
| 2026-04-28 18:49 | -15.07568 | -70.88460 | 32118 ft | 454 kts | 120° |
| 2026-04-28 18:50 | -15.09103 | -70.85620 | 31681 ft | 451 kts | 120° |
| 2026-04-28 18:50 | -15.10629 | -70.82791 | 31229 ft | 448 kts | 120° |
| 2026-04-28 18:50 | -15.12140 | -70.79982 | 30788 ft | 445 kts | 120° |
| 2026-04-28 18:50 | -15.13638 | -70.77186 | 30333 ft | 443 kts | 120° |
| 2026-04-28 18:51 | -15.15122 | -70.74412 | 29892 ft | 438 kts | 120° |
| 2026-04-28 18:51 | -15.16594 | -70.71667 | 29450 ft | 434 kts | 120° |
| 2026-04-28 18:51 | -15.18052 | -70.68949 | 29046 ft | 429 kts | 120° |
| 2026-04-28 18:51 | -15.19490 | -70.66263 | 28643 ft | 424 kts | 120° |
| 2026-04-28 18:52 | -15.20913 | -70.63604 | 28271 ft | 421 kts | 120° |
| 2026-04-28 18:52 | -15.22326 | -70.60963 | 27871 ft | 417 kts | 120° |
| 2026-04-28 18:52 | -15.23726 | -70.58346 | 27454 ft | 414 kts | 120° |
| 2026-04-28 18:52 | -15.25117 | -70.55744 | 27048 ft | 412 kts | 120° |
| 2026-04-28 18:53 | -15.26499 | -70.53157 | 26644 ft | 409 kts | 120° |
| 2026-04-28 18:53 | -15.27874 | -70.50583 | 26234 ft | 407 kts | 120° |
| 2026-04-28 18:53 | -15.29246 | -70.48019 | 25803 ft | 406 kts | 120° |
| 2026-04-28 18:53 | -15.30611 | -70.45468 | 25365 ft | 404 kts | 120° |
| 2026-04-28 18:54 | -15.31971 | -70.42928 | 24934 ft | 402 kts | 120° |
| 2026-04-28 18:54 | -15.33325 | -70.40396 | 24496 ft | 401 kts | 120° |
| 2026-04-28 18:54 | -15.34673 | -70.37873 | 24048 ft | 400 kts | 120° |
| 2026-04-28 18:54 | -15.36014 | -70.35357 | 23548 ft | 398 kts | 120° |
| 2026-04-28 18:55 | -15.37348 | -70.32857 | 23145 ft | 392 kts | 120° |
| 2026-04-28 18:55 | -15.38209 | -70.31241 | 23209 ft | 381 kts | 120° |
| 2026-04-28 18:55 | -15.39880 | -70.28098 | 22759 ft | 365 kts | 120° |
| 2026-04-28 18:55 | -15.41095 | -70.25811 | 22160 ft | 360 kts | 120° |
| 2026-04-28 18:56 | -15.42296 | -70.23554 | 21546 ft | 356 kts | 120° |
| 2026-04-28 18:56 | -15.43484 | -70.21323 | 20932 ft | 352 kts | 120° |
| 2026-04-28 18:56 | -15.44661 | -70.19115 | 20327 ft | 348 kts | 120° |
| 2026-04-28 18:56 | -15.45828 | -70.16924 | 19716 ft | 346 kts | 120° |
| 2026-04-28 18:57 | -15.47151 | -70.14869 | 18865 ft | 341 kts | 131° |
| 2026-04-28 18:57 | -15.48810 | -70.13131 | 18283 ft | 338 kts | 138° |
| 2026-04-28 18:57 | -15.50517 | -70.11470 | 17753 ft | 335 kts | 138° |
| 2026-04-28 18:57 | -15.52190 | -70.09827 | 17446 ft | 324 kts | 137° |
| 2026-04-28 18:58 | -15.53773 | -70.08265 | 17321 ft | 305 kts | 137° |
| 2026-04-28 18:58 | -15.55283 | -70.06772 | 17034 ft | 296 kts | 137° |
| 2026-04-28 18:58 | -15.56763 | -70.05314 | 16588 ft | 291 kts | 137° |
| 2026-04-28 18:58 | -15.58226 | -70.03877 | 16050 ft | 289 kts | 137° |
| 2026-04-28 18:59 | -15.59681 | -70.02446 | 15588 ft | 285 kts | 137° |
| 2026-04-28 18:59 | -15.61084 | -70.01067 | 15417 ft | 271 kts | 137° |
| 2026-04-28 18:59 | -15.62229 | -69.99571 | 15333 ft | 260 kts | 117° |
| 2026-04-28 18:59 | -15.62720 | -69.97798 | 15350 ft | 256 kts | 94° |
| 2026-04-28 19:00 | -15.62536 | -69.96009 | 15357 ft | 254 kts | 72° |
| 2026-04-28 19:00 | -15.61711 | -69.94410 | 15357 ft | 253 kts | 49° |
| 2026-04-28 19:00 | -15.60366 | -69.93253 | 15357 ft | 253 kts | 27° |
| 2026-04-28 19:00 | -15.58704 | -69.92711 | 15345 ft | 251 kts | 4° |
| 2026-04-28 19:01 | -15.56976 | -69.92859 | 15339 ft | 250 kts | 342° |
| 2026-04-28 19:01 | -15.55434 | -69.93652 | 15352 ft | 248 kts | 320° |
| 2026-04-28 19:01 | -15.54294 | -69.94972 | 15343 ft | 247 kts | 298° |
| 2026-04-28 19:01 | -15.53650 | -69.96613 | 15343 ft | 246 kts | 288° |
| 2026-04-28 19:02 | -15.53084 | -69.98313 | 15334 ft | 246 kts | 289° |
| 2026-04-28 19:02 | -15.52474 | -69.99987 | 15120 ft | 251 kts | 290° |
| 2026-04-28 19:02 | -15.51835 | -70.01685 | 14766 ft | 254 kts | 290° |
| 2026-04-28 19:02 | -15.51197 | -70.03369 | 14463 ft | 246 kts | 291° |
| 2026-04-28 19:03 | -15.50590 | -70.04986 | 14181 ft | 233 kts | 290° |
| 2026-04-28 19:03 | -15.50060 | -70.06512 | 13965 ft | 217 kts | 288° |
| 2026-04-28 19:03 | -15.49604 | -70.07933 | 13782 ft | 195 kts | 287° |
| 2026-04-28 19:03 | -15.49215 | -70.09204 | 13538 ft | 177 kts | 286° |
| 2026-04-28 19:04 | -15.48833 | -70.10380 | 13272 ft | 169 kts | 290° |
| 2026-04-28 19:04 | -15.48399 | -70.11493 | 13081 ft | 166 kts | 292° |
| 2026-04-28 19:04 | -15.47956 | -70.12595 | 12883 ft | 166 kts | 294° |
| 2026-04-28 19:04 | -15.47520 | -70.13701 | 12665 ft | 165 kts | 293° |
| 2026-04-28 19:05 | -15.47098 | -70.14757 | 12566 ft | 143 kts | 291° |
| 2026-04-28 19:05 | -15.46773 | -70.15583 | 12562 ft | 105 kts | 292° |
| 2026-04-28 19:05 | -15.46545 | -70.16164 | 12565 ft | 76 kts | 292° |
| 2026-04-28 19:05 | -15.46369 | -70.16613 | 12562 ft | 59 kts | 292° |
| 2026-04-28 19:06 | -15.46227 | -70.16973 | 12564 ft | 51 kts | 292° |
| 2026-04-28 19:06 | -15.46139 | -70.17198 | 12567 ft | 49 kts | 292° |
| 2026-04-28 19:06 | -15.46028 | -70.17483 | 12567 ft | 12 kts | 291° |
| 2026-04-28 19:06 | -15.46030 | -70.17561 | 12569 ft | 10 kts | 262° |
| 2026-04-28 19:07 | -15.45995 | -70.17578 | 12569 ft | 8 kts | 66° |
| 2026-04-28 19:07 | -15.46012 | -70.17515 | 12568 ft | 11 kts | 111° |
| 2026-04-28 19:07 | -15.46046 | -70.17428 | 12568 ft | 15 kts | 112° |
| 2026-04-28 19:07 | -15.46092 | -70.17309 | 12567 ft | 20 kts | 111° |
| 2026-04-28 19:08 | -15.46152 | -70.17158 | 12567 ft | 26 kts | 112° |
| 2026-04-28 19:08 | -15.46232 | -70.16953 | 12564 ft | 35 kts | 112° |
| 2026-04-28 19:08 | -15.46334 | -70.16695 | 12565 ft | 42 kts | 112° |
| 2026-04-28 19:08 | -15.46451 | -70.16399 | 12561 ft | 46 kts | 112° |
| 2026-04-28 19:09 | -15.46577 | -70.16076 | 12565 ft | 50 kts | 112° |
| 2026-04-28 19:09 | -15.46693 | -70.15786 | 12564 ft | 27 kts | 112° |
| 2026-04-28 19:09 | -15.46741 | -70.15668 | 12562 ft | 13 kts | 120° |
| 2026-04-28 19:09 | -15.46827 | -70.15664 | 12562 ft | 13 kts | 202° |
| 2026-04-28 19:10 | -15.46903 | -70.15695 | 12563 ft | 7 kts | 201° |
| 2026-04-28 19:10 | -15.46943 | -70.15704 | 12766 ft | 6 kts | 166° |
| 2026-04-28 19:10 | -15.46977 | -70.15688 | 12563 ft | 3 kts | 124° |
| 2026-04-28 19:10 | -15.46977 | -70.15686 | 12563 ft | 0 kts | 112° |